sensor_id;sensor_type;location;lat;lon;timestamp;P1;durP1;ratioP1;P2;durP2;ratioP2
3571;SDS011;7958;53.024;12.970;2022-09-09T00:02:24;13.53;;;10.40;;
3571;SDS011;7958;53.024;12.970;2022-09-09T00:04:58;14.50;;;12.40;;
3571;SDS011;7958;53.024;12.970;2022-09-09T00:07:28;14.93;;;11.77;;
3571;SDS011;7958;53.024;12.970;2022-09-09T00:10:04;14.17;;;11.60;;
3571;SDS011;7958;53.024;12.970;2022-09-09T00:12:40;14.83;;;11.50;;
3571;SDS011;7958;53.024;12.970;2022-09-09T00:15:17;16.50;;;12.77;;
3571;SDS011;7958;53.024;12.970;2022-09-09T00:17:48;21.07;;;13.50;;
3571;SDS011;7958;53.024;12.970;2022-09-09T00:20:20;16.77;;;12.77;;
3571;SDS011;7958;53.024;12.970;2022-09-09T00:22:51;18.30;;;14.03;;
3571;SDS011;7958;53.024;12.970;2022-09-09T00:25:23;18.37;;;13.93;;
3571;SDS011;7958;53.024;12.970;2022-09-09T00:27:53;22.60;;;14.47;;
3571;SDS011;7958;53.024;12.970;2022-09-09T00:30:22;17.40;;;13.37;;
3571;SDS011;7958;53.024;12.970;2022-09-09T00:32:53;17.83;;;13.33;;
3571;SDS011;7958;53.024;12.970;2022-09-09T00:35:24;17.30;;;12.60;;
3571;SDS011;7958;53.024;12.970;2022-09-09T00:37:54;18.13;;;14.00;;
3571;SDS011;7958;53.024;12.970;2022-09-09T00:40:24;19.70;;;13.83;;
3571;SDS011;7958;53.024;12.970;2022-09-09T00:42:55;20.07;;;14.07;;
3571;SDS011;7958;53.024;12.970;2022-09-09T00:45:41;18.77;;;14.07;;
3571;SDS011;7958;53.024;12.970;2022-09-09T00:48:22;20.23;;;14.10;;
3571;SDS011;7958;53.024;12.970;2022-09-09T00:50:55;21.57;;;14.70;;
3571;SDS011;7958;53.024;12.970;2022-09-09T00:53:28;20.30;;;14.43;;
3571;SDS011;7958;53.024;12.970;2022-09-09T00:56:01;20.40;;;13.20;;
3571;SDS011;7958;53.024;12.970;2022-09-09T00:58:32;18.83;;;13.00;;
3571;SDS011;7958;53.024;12.970;2022-09-09T01:01:00;25.50;;;15.47;;
3571;SDS011;7958;53.024;12.970;2022-09-09T01:03:35;24.43;;;15.00;;
3571;SDS011;7958;53.024;12.970;2022-09-09T01:06:15;25.93;;;15.53;;
3571;SDS011;7958;53.024;12.970;2022-09-09T01:08:48;27.23;;;15.40;;
3571;SDS011;7958;53.024;12.970;2022-09-09T01:11:25;23.20;;;14.10;;
3571;SDS011;7958;53.024;12.970;2022-09-09T01:13:56;24.67;;;14.40;;
3571;SDS011;7958;53.024;12.970;2022-09-09T01:16:25;24.90;;;15.50;;
3571;SDS011;7958;53.024;12.970;2022-09-09T01:18:54;22.87;;;15.27;;
3571;SDS011;7958;53.024;12.970;2022-09-09T01:21:22;29.93;;;16.87;;
3571;SDS011;7958;53.024;12.970;2022-09-09T01:26:51;22.97;;;14.03;;
3571;SDS011;7958;53.024;12.970;2022-09-09T01:29:19;25.33;;;15.93;;
3571;SDS011;7958;53.024;12.970;2022-09-09T01:31:52;25.07;;;15.43;;
3571;SDS011;7958;53.024;12.970;2022-09-09T01:34:20;24.70;;;15.80;;
3571;SDS011;7958;53.024;12.970;2022-09-09T01:36:49;25.10;;;16.03;;
3571;SDS011;7958;53.024;12.970;2022-09-09T01:39:19;23.67;;;16.23;;
3571;SDS011;7958;53.024;12.970;2022-09-09T01:41:47;23.90;;;16.00;;
3571;SDS011;7958;53.024;12.970;2022-09-09T01:44:15;23.80;;;15.73;;
3571;SDS011;7958;53.024;12.970;2022-09-09T01:46:43;23.87;;;15.40;;
3571;SDS011;7958;53.024;12.970;2022-09-09T01:49:10;24.53;;;15.97;;
3571;SDS011;7958;53.024;12.970;2022-09-09T01:51:37;23.63;;;16.13;;
3571;SDS011;7958;53.024;12.970;2022-09-09T01:54:05;26.50;;;16.70;;
3571;SDS011;7958;53.024;12.970;2022-09-09T01:56:36;22.97;;;15.63;;
3571;SDS011;7958;53.024;12.970;2022-09-09T01:59:11;26.27;;;17.70;;
3571;SDS011;7958;53.024;12.970;2022-09-09T02:01:51;30.80;;;18.13;;
3571;SDS011;7958;53.024;12.970;2022-09-09T02:04:28;29.03;;;16.97;;
3571;SDS011;7958;53.024;12.970;2022-09-09T02:07:02;29.43;;;17.97;;
3571;SDS011;7958;53.024;12.970;2022-09-09T02:09:33;28.53;;;17.30;;
3571;SDS011;7958;53.024;12.970;2022-09-09T02:12:02;35.37;;;17.33;;
3571;SDS011;7958;53.024;12.970;2022-09-09T02:14:34;29.00;;;17.20;;
3571;SDS011;7958;53.024;12.970;2022-09-09T02:17:05;29.13;;;16.60;;
3571;SDS011;7958;53.024;12.970;2022-09-09T02:19:34;28.93;;;16.57;;
3571;SDS011;7958;53.024;12.970;2022-09-09T02:22:03;27.30;;;15.43;;
3571;SDS011;7958;53.024;12.970;2022-09-09T02:24:32;31.40;;;17.20;;
3571;SDS011;7958;53.024;12.970;2022-09-09T02:27:00;37.83;;;16.57;;
3571;SDS011;7958;53.024;12.970;2022-09-09T02:29:31;30.83;;;16.00;;
3571;SDS011;7958;53.024;12.970;2022-09-09T02:32:01;32.47;;;15.90;;
3571;SDS011;7958;53.024;12.970;2022-09-09T02:34:33;32.20;;;15.63;;
3571;SDS011;7958;53.024;12.970;2022-09-09T02:37:02;34.80;;;16.30;;
3571;SDS011;7958;53.024;12.970;2022-09-09T02:39:29;31.07;;;16.90;;
3571;SDS011;7958;53.024;12.970;2022-09-09T02:41:56;35.53;;;20.77;;
3571;SDS011;7958;53.024;12.970;2022-09-09T02:44:23;57.03;;;39.03;;
3571;SDS011;7958;53.024;12.970;2022-09-09T02:47:00;37.73;;;24.00;;
3571;SDS011;7958;53.024;12.970;2022-09-09T02:49:37;47.90;;;30.70;;
3571;SDS011;7958;53.024;12.970;2022-09-09T02:52:11;46.03;;;30.50;;
3571;SDS011;7958;53.024;12.970;2022-09-09T02:54:41;55.50;;;35.87;;
3571;SDS011;7958;53.024;12.970;2022-09-09T02:57:10;39.97;;;28.50;;
3571;SDS011;7958;53.024;12.970;2022-09-09T02:59:38;50.03;;;32.10;;
3571;SDS011;7958;53.024;12.970;2022-09-09T03:02:06;47.83;;;34.27;;
3571;SDS011;7958;53.024;12.970;2022-09-09T03:04:36;51.27;;;37.20;;
3571;SDS011;7958;53.024;12.970;2022-09-09T03:07:03;43.93;;;29.83;;
3571;SDS011;7958;53.024;12.970;2022-09-09T03:09:30;43.13;;;29.43;;
3571;SDS011;7958;53.024;12.970;2022-09-09T03:11:57;38.30;;;26.73;;
3571;SDS011;7958;53.024;12.970;2022-09-09T03:14:24;35.00;;;26.07;;
3571;SDS011;7958;53.024;12.970;2022-09-09T03:16:51;37.87;;;25.70;;
3571;SDS011;7958;53.024;12.970;2022-09-09T03:19:19;33.43;;;24.60;;
3571;SDS011;7958;53.024;12.970;2022-09-09T03:21:46;33.40;;;25.10;;
3571;SDS011;7958;53.024;12.970;2022-09-09T03:24:13;33.27;;;23.77;;
3571;SDS011;7958;53.024;12.970;2022-09-09T03:26:40;39.67;;;23.60;;
3571;SDS011;7958;53.024;12.970;2022-09-09T03:29:09;33.10;;;20.77;;
3571;SDS011;7958;53.024;12.970;2022-09-09T03:31:37;29.77;;;21.63;;
3571;SDS011;7958;53.024;12.970;2022-09-09T03:34:04;31.50;;;20.70;;
3571;SDS011;7958;53.024;12.970;2022-09-09T03:36:32;34.40;;;21.57;;
3571;SDS011;7958;53.024;12.970;2022-09-09T03:38:59;33.10;;;20.27;;
3571;SDS011;7958;53.024;12.970;2022-09-09T03:41:25;29.47;;;20.10;;
3571;SDS011;7958;53.024;12.970;2022-09-09T03:43:53;43.63;;;21.07;;
3571;SDS011;7958;53.024;12.970;2022-09-09T03:46:20;25.30;;;16.87;;
3571;SDS011;7958;53.024;12.970;2022-09-09T03:48:47;23.47;;;17.70;;
3571;SDS011;7958;53.024;12.970;2022-09-09T03:51:13;23.97;;;16.53;;
3571;SDS011;7958;53.024;12.970;2022-09-09T03:53:42;22.50;;;16.63;;
3571;SDS011;7958;53.024;12.970;2022-09-09T03:56:09;24.47;;;15.60;;
3571;SDS011;7958;53.024;12.970;2022-09-09T03:58:42;21.10;;;14.70;;
3571;SDS011;7958;53.024;12.970;2022-09-09T04:01:12;28.00;;;15.50;;
3571;SDS011;7958;53.024;12.970;2022-09-09T04:03:39;20.00;;;14.73;;
3571;SDS011;7958;53.024;12.970;2022-09-09T04:06:06;24.20;;;16.67;;
3571;SDS011;7958;53.024;12.970;2022-09-09T04:08:34;20.47;;;15.50;;
3571;SDS011;7958;53.024;12.970;2022-09-09T04:11:04;22.60;;;13.90;;
3571;SDS011;7958;53.024;12.970;2022-09-09T04:13:32;22.77;;;16.27;;
3571;SDS011;7958;53.024;12.970;2022-09-09T04:15:59;24.20;;;18.17;;
3571;SDS011;7958;53.024;12.970;2022-09-09T04:18:26;28.37;;;25.37;;
3571;SDS011;7958;53.024;12.970;2022-09-09T04:20:53;19.60;;;15.90;;
3571;SDS011;7958;53.024;12.970;2022-09-09T04:23:22;20.93;;;15.73;;
3571;SDS011;7958;53.024;12.970;2022-09-09T04:25:49;22.63;;;15.73;;
3571;SDS011;7958;53.024;12.970;2022-09-09T04:28:19;21.50;;;15.03;;
3571;SDS011;7958;53.024;12.970;2022-09-09T04:30:47;20.00;;;14.30;;
3571;SDS011;7958;53.024;12.970;2022-09-09T04:33:14;19.20;;;13.37;;
3571;SDS011;7958;53.024;12.970;2022-09-09T04:35:43;19.47;;;14.10;;
3571;SDS011;7958;53.024;12.970;2022-09-09T04:38:10;23.80;;;14.70;;
3571;SDS011;7958;53.024;12.970;2022-09-09T04:40:37;18.53;;;12.83;;
3571;SDS011;7958;53.024;12.970;2022-09-09T04:43:07;20.07;;;13.90;;
3571;SDS011;7958;53.024;12.970;2022-09-09T04:45:36;20.53;;;14.17;;
3571;SDS011;7958;53.024;12.970;2022-09-09T04:48:03;23.03;;;16.00;;
3571;SDS011;7958;53.024;12.970;2022-09-09T04:50:29;24.47;;;17.30;;
3571;SDS011;7958;53.024;12.970;2022-09-09T04:52:56;23.90;;;15.13;;
3571;SDS011;7958;53.024;12.970;2022-09-09T04:55:26;25.37;;;15.80;;
3571;SDS011;7958;53.024;12.970;2022-09-09T04:57:52;22.93;;;16.50;;
3571;SDS011;7958;53.024;12.970;2022-09-09T05:00:19;25.50;;;19.00;;
3571;SDS011;7958;53.024;12.970;2022-09-09T05:02:47;23.13;;;16.57;;
3571;SDS011;7958;53.024;12.970;2022-09-09T05:05:14;19.80;;;13.90;;
3571;SDS011;7958;53.024;12.970;2022-09-09T05:07:41;22.07;;;15.60;;
3571;SDS011;7958;53.024;12.970;2022-09-09T05:10:08;20.83;;;14.47;;
3571;SDS011;7958;53.024;12.970;2022-09-09T05:12:35;18.33;;;13.10;;
3571;SDS011;7958;53.024;12.970;2022-09-09T05:15:02;18.17;;;12.50;;
3571;SDS011;7958;53.024;12.970;2022-09-09T05:17:30;14.83;;;11.60;;
3571;SDS011;7958;53.024;12.970;2022-09-09T05:20:00;20.93;;;12.40;;
3571;SDS011;7958;53.024;12.970;2022-09-09T05:22:28;89.50;;;12.13;;
3571;SDS011;7958;53.024;12.970;2022-09-09T05:24:55;14.10;;;10.60;;
3571;SDS011;7958;53.024;12.970;2022-09-09T05:27:21;13.07;;;9.77;;
3571;SDS011;7958;53.024;12.970;2022-09-09T05:29:47;13.13;;;10.13;;
3571;SDS011;7958;53.024;12.970;2022-09-09T05:32:14;11.27;;;8.90;;
3571;SDS011;7958;53.024;12.970;2022-09-09T05:34:42;10.80;;;8.40;;
3571;SDS011;7958;53.024;12.970;2022-09-09T05:37:09;11.77;;;8.20;;
3571;SDS011;7958;53.024;12.970;2022-09-09T05:39:36;13.60;;;9.47;;
3571;SDS011;7958;53.024;12.970;2022-09-09T05:42:03;9.97;;;8.33;;
3571;SDS011;7958;53.024;12.970;2022-09-09T05:44:30;10.20;;;8.63;;
3571;SDS011;7958;53.024;12.970;2022-09-09T05:46:56;10.43;;;8.73;;
3571;SDS011;7958;53.024;12.970;2022-09-09T05:49:23;10.97;;;9.23;;
3571;SDS011;7958;53.024;12.970;2022-09-09T05:51:50;11.23;;;9.20;;
3571;SDS011;7958;53.024;12.970;2022-09-09T05:54:17;8.17;;;7.37;;
3571;SDS011;7958;53.024;12.970;2022-09-09T05:56:44;12.00;;;9.53;;
3571;SDS011;7958;53.024;12.970;2022-09-09T05:59:12;11.83;;;8.90;;
3571;SDS011;7958;53.024;12.970;2022-09-09T06:01:39;10.30;;;8.33;;
3571;SDS011;7958;53.024;12.970;2022-09-09T06:04:07;9.60;;;8.50;;
3571;SDS011;7958;53.024;12.970;2022-09-09T06:06:34;12.40;;;8.90;;
3571;SDS011;7958;53.024;12.970;2022-09-09T06:09:02;12.93;;;9.03;;
3571;SDS011;7958;53.024;12.970;2022-09-09T06:11:32;13.10;;;8.07;;
3571;SDS011;7958;53.024;12.970;2022-09-09T06:13:59;10.03;;;7.70;;
3571;SDS011;7958;53.024;12.970;2022-09-09T06:16:27;10.53;;;9.13;;
3571;SDS011;7958;53.024;12.970;2022-09-09T06:18:55;12.60;;;10.10;;
3571;SDS011;7958;53.024;12.970;2022-09-09T06:21:23;11.33;;;9.43;;
3571;SDS011;7958;53.024;12.970;2022-09-09T06:23:52;9.63;;;8.67;;
3571;SDS011;7958;53.024;12.970;2022-09-09T06:26:19;10.00;;;8.30;;
3571;SDS011;7958;53.024;12.970;2022-09-09T06:28:49;11.00;;;9.90;;
3571;SDS011;7958;53.024;12.970;2022-09-09T06:31:18;10.10;;;9.10;;
3571;SDS011;7958;53.024;12.970;2022-09-09T06:33:46;11.30;;;10.10;;
3571;SDS011;7958;53.024;12.970;2022-09-09T06:36:21;10.40;;;9.40;;
3571;SDS011;7958;53.024;12.970;2022-09-09T06:38:51;10.67;;;9.30;;
3571;SDS011;7958;53.024;12.970;2022-09-09T06:41:21;9.43;;;8.47;;
3571;SDS011;7958;53.024;12.970;2022-09-09T06:43:52;9.60;;;8.20;;
3571;SDS011;7958;53.024;12.970;2022-09-09T06:46:18;10.70;;;9.03;;
3571;SDS011;7958;53.024;12.970;2022-09-09T06:48:47;9.17;;;8.27;;
3571;SDS011;7958;53.024;12.970;2022-09-09T06:51:15;8.60;;;7.80;;
3571;SDS011;7958;53.024;12.970;2022-09-09T06:53:42;9.13;;;8.23;;
3571;SDS011;7958;53.024;12.970;2022-09-09T06:56:20;8.67;;;7.73;;
3571;SDS011;7958;53.024;12.970;2022-09-09T06:58:48;8.33;;;7.60;;
3571;SDS011;7958;53.024;12.970;2022-09-09T07:01:18;9.40;;;6.80;;
3571;SDS011;7958;53.024;12.970;2022-09-09T07:03:46;7.97;;;7.27;;
3571;SDS011;7958;53.024;12.970;2022-09-09T07:06:15;7.00;;;6.00;;
3571;SDS011;7958;53.024;12.970;2022-09-09T07:08:47;9.23;;;6.90;;
3571;SDS011;7958;53.024;12.970;2022-09-09T07:11:15;7.43;;;6.60;;
3571;SDS011;7958;53.024;12.970;2022-09-09T07:13:41;7.73;;;5.60;;
3571;SDS011;7958;53.024;12.970;2022-09-09T07:16:09;8.27;;;6.00;;
3571;SDS011;7958;53.024;12.970;2022-09-09T07:18:37;9.17;;;5.90;;
3571;SDS011;7958;53.024;12.970;2022-09-09T07:21:04;6.40;;;5.80;;
3571;SDS011;7958;53.024;12.970;2022-09-09T07:23:31;6.67;;;6.00;;
3571;SDS011;7958;53.024;12.970;2022-09-09T07:25:58;6.57;;;5.97;;
3571;SDS011;7958;53.024;12.970;2022-09-09T07:28:30;7.17;;;6.53;;
3571;SDS011;7958;53.024;12.970;2022-09-09T07:30:58;6.93;;;6.33;;
3571;SDS011;7958;53.024;12.970;2022-09-09T07:33:26;6.23;;;5.67;;
3571;SDS011;7958;53.024;12.970;2022-09-09T07:36:01;6.80;;;6.20;;
3571;SDS011;7958;53.024;12.970;2022-09-09T07:38:28;10.30;;;6.27;;
3571;SDS011;7958;53.024;12.970;2022-09-09T07:41:01;6.10;;;5.50;;
3571;SDS011;7958;53.024;12.970;2022-09-09T07:43:30;7.20;;;6.50;;
3571;SDS011;7958;53.024;12.970;2022-09-09T07:45:57;6.67;;;5.97;;
3571;SDS011;7958;53.024;12.970;2022-09-09T07:48:27;8.40;;;6.00;;
3571;SDS011;7958;53.024;12.970;2022-09-09T07:51:03;7.07;;;6.17;;
3571;SDS011;7958;53.024;12.970;2022-09-09T07:53:31;7.60;;;5.67;;
3571;SDS011;7958;53.024;12.970;2022-09-09T07:56:01;7.10;;;4.70;;
3571;SDS011;7958;53.024;12.970;2022-09-09T07:58:29;6.67;;;6.07;;
3571;SDS011;7958;53.024;12.970;2022-09-09T08:00:56;5.17;;;4.67;;
3571;SDS011;7958;53.024;12.970;2022-09-09T08:03:22;8.03;;;4.27;;
3571;SDS011;7958;53.024;12.970;2022-09-09T08:05:49;8.07;;;4.07;;
3571;SDS011;7958;53.024;12.970;2022-09-09T08:08:17;5.50;;;4.43;;
3571;SDS011;7958;53.024;12.970;2022-09-09T08:10:50;7.90;;;4.30;;
3571;SDS011;7958;53.024;12.970;2022-09-09T08:13:17;6.33;;;3.80;;
3571;SDS011;7958;53.024;12.970;2022-09-09T08:15:44;4.70;;;4.20;;
3571;SDS011;7958;53.024;12.970;2022-09-09T08:18:11;4.87;;;3.70;;
3571;SDS011;7958;53.024;12.970;2022-09-09T08:20:38;8.80;;;3.80;;
3571;SDS011;7958;53.024;12.970;2022-09-09T08:23:04;4.27;;;3.33;;
3571;SDS011;7958;53.024;12.970;2022-09-09T08:25:34;5.83;;;3.37;;
3571;SDS011;7958;53.024;12.970;2022-09-09T08:28:01;5.37;;;4.00;;
3571;SDS011;7958;53.024;12.970;2022-09-09T08:30:28;3.37;;;3.07;;
3571;SDS011;7958;53.024;12.970;2022-09-09T08:32:55;3.20;;;2.90;;
3571;SDS011;7958;53.024;12.970;2022-09-09T08:35:21;4.40;;;3.33;;
3571;SDS011;7958;53.024;12.970;2022-09-09T08:37:48;7.27;;;3.40;;
3571;SDS011;7958;53.024;12.970;2022-09-09T08:40:20;3.47;;;2.70;;
3571;SDS011;7958;53.024;12.970;2022-09-09T08:42:51;3.63;;;2.40;;
3571;SDS011;7958;53.024;12.970;2022-09-09T08:45:29;2.97;;;2.17;;
3571;SDS011;7958;53.024;12.970;2022-09-09T08:48:12;2.00;;;1.90;;
3571;SDS011;7958;53.024;12.970;2022-09-09T08:50:45;2.40;;;2.20;;
3571;SDS011;7958;53.024;12.970;2022-09-09T08:53:20;2.77;;;2.30;;
3571;SDS011;7958;53.024;12.970;2022-09-09T08:55:51;2.93;;;2.23;;
3571;SDS011;7958;53.024;12.970;2022-09-09T08:58:21;2.80;;;2.10;;
3571;SDS011;7958;53.024;12.970;2022-09-09T09:00:54;2.63;;;2.00;;
3571;SDS011;7958;53.024;12.970;2022-09-09T09:03:31;2.43;;;1.80;;
3571;SDS011;7958;53.024;12.970;2022-09-09T09:06:04;2.40;;;1.80;;
3571;SDS011;7958;53.024;12.970;2022-09-09T09:08:35;4.20;;;1.50;;
3571;SDS011;7958;53.024;12.970;2022-09-09T09:11:06;2.30;;;2.00;;
3571;SDS011;7958;53.024;12.970;2022-09-09T09:13:34;3.03;;;1.80;;
3571;SDS011;7958;53.024;12.970;2022-09-09T09:16:06;2.30;;;1.60;;
3571;SDS011;7958;53.024;12.970;2022-09-09T09:18:39;2.03;;;1.90;;
3571;SDS011;7958;53.024;12.970;2022-09-09T09:21:08;1.87;;;1.60;;
3571;SDS011;7958;53.024;12.970;2022-09-09T09:23:40;2.97;;;1.63;;
3571;SDS011;7958;53.024;12.970;2022-09-09T09:26:10;6.13;;;2.10;;
3571;SDS011;7958;53.024;12.970;2022-09-09T09:28:38;2.80;;;1.90;;
3571;SDS011;7958;53.024;12.970;2022-09-09T09:31:06;5.13;;;2.13;;
3571;SDS011;7958;53.024;12.970;2022-09-09T09:33:42;3.53;;;2.00;;
3571;SDS011;7958;53.024;12.970;2022-09-09T09:36:15;2.90;;;1.70;;
3571;SDS011;7958;53.024;12.970;2022-09-09T09:38:56;4.73;;;1.50;;
3571;SDS011;7958;53.024;12.970;2022-09-09T09:41:29;2.40;;;1.60;;
3571;SDS011;7958;53.024;12.970;2022-09-09T09:43:58;4.67;;;2.00;;
3571;SDS011;7958;53.024;12.970;2022-09-09T09:46:26;5.27;;;2.60;;
3571;SDS011;7958;53.024;12.970;2022-09-09T09:48:57;4.97;;;2.67;;
3571;SDS011;7958;53.024;12.970;2022-09-09T09:51:25;10.20;;;3.37;;
3571;SDS011;7958;53.024;12.970;2022-09-09T09:54:02;6.83;;;4.60;;
3571;SDS011;7958;53.024;12.970;2022-09-09T09:56:34;6.00;;;5.40;;
3571;SDS011;7958;53.024;12.970;2022-09-09T09:59:18;7.10;;;6.07;;
3571;SDS011;7958;53.024;12.970;2022-09-09T10:01:46;9.77;;;6.93;;
3571;SDS011;7958;53.024;12.970;2022-09-09T10:04:14;7.20;;;4.80;;
3571;SDS011;7958;53.024;12.970;2022-09-09T10:06:43;5.60;;;3.60;;
3571;SDS011;7958;53.024;12.970;2022-09-09T10:09:20;3.93;;;3.40;;
3571;SDS011;7958;53.024;12.970;2022-09-09T10:11:55;5.23;;;2.70;;
3571;SDS011;7958;53.024;12.970;2022-09-09T10:14:28;4.43;;;2.70;;
3571;SDS011;7958;53.024;12.970;2022-09-09T10:17:05;5.60;;;3.60;;
3571;SDS011;7958;53.024;12.970;2022-09-09T10:19:39;5.10;;;3.90;;
3571;SDS011;7958;53.024;12.970;2022-09-09T10:22:12;5.53;;;4.50;;
3571;SDS011;7958;53.024;12.970;2022-09-09T10:25:02;5.50;;;4.40;;
3571;SDS011;7958;53.024;12.970;2022-09-09T10:27:38;9.27;;;6.50;;
3571;SDS011;7958;53.024;12.970;2022-09-09T10:30:14;9.60;;;7.47;;
3571;SDS011;7958;53.024;12.970;2022-09-09T10:32:46;9.20;;;5.97;;
3571;SDS011;7958;53.024;12.970;2022-09-09T10:35:26;8.00;;;5.73;;
3571;SDS011;7958;53.024;12.970;2022-09-09T10:38:03;6.27;;;4.40;;
3571;SDS011;7958;53.024;12.970;2022-09-09T10:40:38;10.33;;;4.77;;
3571;SDS011;7958;53.024;12.970;2022-09-09T10:43:10;8.63;;;4.20;;
3571;SDS011;7958;53.024;12.970;2022-09-09T10:45:49;3.77;;;3.30;;
3571;SDS011;7958;53.024;12.970;2022-09-09T10:48:39;3.70;;;2.90;;
3571;SDS011;7958;53.024;12.970;2022-09-09T10:51:19;5.87;;;3.60;;
3571;SDS011;7958;53.024;12.970;2022-09-09T10:53:53;6.53;;;3.87;;
3571;SDS011;7958;53.024;12.970;2022-09-09T10:56:31;6.13;;;3.07;;
3571;SDS011;7958;53.024;12.970;2022-09-09T10:58:59;8.87;;;3.00;;
3571;SDS011;7958;53.024;12.970;2022-09-09T11:01:31;7.00;;;3.77;;
3571;SDS011;7958;53.024;12.970;2022-09-09T11:04:01;12.33;;;5.17;;
3571;SDS011;7958;53.024;12.970;2022-09-09T11:06:31;5.60;;;4.57;;
3571;SDS011;7958;53.024;12.970;2022-09-09T11:09:00;7.60;;;5.57;;
3571;SDS011;7958;53.024;12.970;2022-09-09T11:11:32;3.30;;;3.00;;
3571;SDS011;7958;53.024;12.970;2022-09-09T11:14:01;5.13;;;2.90;;
3571;SDS011;7958;53.024;12.970;2022-09-09T11:16:38;4.90;;;2.70;;
3571;SDS011;7958;53.024;12.970;2022-09-09T11:19:21;3.47;;;2.10;;
3571;SDS011;7958;53.024;12.970;2022-09-09T11:21:52;5.50;;;3.60;;
3571;SDS011;7958;53.024;12.970;2022-09-09T11:24:20;6.20;;;4.30;;
3571;SDS011;7958;53.024;12.970;2022-09-09T11:26:51;9.73;;;6.30;;
3571;SDS011;7958;53.024;12.970;2022-09-09T11:29:23;6.93;;;5.03;;
3571;SDS011;7958;53.024;12.970;2022-09-09T11:32:09;6.00;;;5.30;;
3571;SDS011;7958;53.024;12.970;2022-09-09T11:34:50;6.03;;;4.20;;
3571;SDS011;7958;53.024;12.970;2022-09-09T11:37:26;6.50;;;5.00;;
3571;SDS011;7958;53.024;12.970;2022-09-09T11:40:14;4.73;;;3.70;;
3571;SDS011;7958;53.024;12.970;2022-09-09T11:42:44;7.67;;;3.70;;
3571;SDS011;7958;53.024;12.970;2022-09-09T11:45:19;5.33;;;4.10;;
3571;SDS011;7958;53.024;12.970;2022-09-09T11:47:53;3.20;;;2.90;;
3571;SDS011;7958;53.024;12.970;2022-09-09T11:53:16;8.43;;;5.20;;
3571;SDS011;7958;53.024;12.970;2022-09-09T11:55:47;4.93;;;4.23;;
3571;SDS011;7958;53.024;12.970;2022-09-09T11:58:15;6.10;;;4.60;;
3571;SDS011;7958;53.024;12.970;2022-09-09T12:00:43;4.80;;;3.73;;
3571;SDS011;7958;53.024;12.970;2022-09-09T12:06:08;3.83;;;2.70;;
3571;SDS011;7958;53.024;12.970;2022-09-09T12:08:35;6.00;;;2.73;;
3571;SDS011;7958;53.024;12.970;2022-09-09T12:11:02;3.60;;;3.00;;
3571;SDS011;7958;53.024;12.970;2022-09-09T12:13:29;4.90;;;3.33;;
3571;SDS011;7958;53.024;12.970;2022-09-09T12:15:59;4.50;;;3.10;;
3571;SDS011;7958;53.024;12.970;2022-09-09T12:18:31;4.83;;;3.10;;
3571;SDS011;7958;53.024;12.970;2022-09-09T12:21:06;3.70;;;2.70;;
3571;SDS011;7958;53.024;12.970;2022-09-09T12:23:37;4.57;;;2.30;;
3571;SDS011;7958;53.024;12.970;2022-09-09T12:26:16;3.13;;;2.57;;
3571;SDS011;7958;53.024;12.970;2022-09-09T12:28:52;8.70;;;3.03;;
3571;SDS011;7958;53.024;12.970;2022-09-09T12:31:24;4.17;;;2.73;;
3571;SDS011;7958;53.024;12.970;2022-09-09T12:33:54;4.50;;;2.73;;
3571;SDS011;7958;53.024;12.970;2022-09-09T12:36:21;4.97;;;2.40;;
3571;SDS011;7958;53.024;12.970;2022-09-09T12:38:50;3.57;;;2.20;;
3571;SDS011;7958;53.024;12.970;2022-09-09T12:41:20;3.27;;;2.30;;
3571;SDS011;7958;53.024;12.970;2022-09-09T12:43:48;4.73;;;2.00;;
3571;SDS011;7958;53.024;12.970;2022-09-09T12:46:17;2.00;;;1.20;;
3571;SDS011;7958;53.024;12.970;2022-09-09T12:49:04;6.80;;;1.70;;
3571;SDS011;7958;53.024;12.970;2022-09-09T12:51:32;1.43;;;1.27;;
3571;SDS011;7958;53.024;12.970;2022-09-09T12:53:59;2.63;;;1.57;;
3571;SDS011;7958;53.024;12.970;2022-09-09T12:56:27;5.10;;;1.63;;
3571;SDS011;7958;53.024;12.970;2022-09-09T12:58:54;2.90;;;1.40;;
3571;SDS011;7958;53.024;12.970;2022-09-09T13:01:24;3.17;;;1.47;;
3571;SDS011;7958;53.024;12.970;2022-09-09T13:03:51;2.43;;;1.10;;
3571;SDS011;7958;53.024;12.970;2022-09-09T13:06:20;2.87;;;1.20;;
3571;SDS011;7958;53.024;12.970;2022-09-09T13:08:48;2.20;;;1.27;;
3571;SDS011;7958;53.024;12.970;2022-09-09T13:11:16;1.40;;;1.30;;
3571;SDS011;7958;53.024;12.970;2022-09-09T13:13:49;3.90;;;1.43;;
3571;SDS011;7958;53.024;12.970;2022-09-09T13:16:20;1.70;;;1.60;;
3571;SDS011;7958;53.024;12.970;2022-09-09T13:18:48;1.80;;;1.13;;
3571;SDS011;7958;53.024;12.970;2022-09-09T13:21:15;2.60;;;1.47;;
3571;SDS011;7958;53.024;12.970;2022-09-09T13:23:49;2.23;;;1.30;;
3571;SDS011;7958;53.024;12.970;2022-09-09T13:26:20;2.50;;;1.50;;
3571;SDS011;7958;53.024;12.970;2022-09-09T13:28:51;3.40;;;2.03;;
3571;SDS011;7958;53.024;12.970;2022-09-09T13:31:22;4.57;;;2.07;;
3571;SDS011;7958;53.024;12.970;2022-09-09T13:33:50;3.10;;;2.30;;
3571;SDS011;7958;53.024;12.970;2022-09-09T13:36:27;12.70;;;2.87;;
3571;SDS011;7958;53.024;12.970;2022-09-09T13:38:59;9.47;;;3.20;;
3571;SDS011;7958;53.024;12.970;2022-09-09T13:41:28;3.60;;;2.33;;
3571;SDS011;7958;53.024;12.970;2022-09-09T13:44:00;3.70;;;2.17;;
3571;SDS011;7958;53.024;12.970;2022-09-09T13:46:30;6.60;;;2.30;;
3571;SDS011;7958;53.024;12.970;2022-09-09T13:48:59;3.40;;;2.20;;
3571;SDS011;7958;53.024;12.970;2022-09-09T13:51:46;4.73;;;2.07;;
3571;SDS011;7958;53.024;12.970;2022-09-09T13:54:18;2.97;;;2.30;;
3571;SDS011;7958;53.024;12.970;2022-09-09T13:56:48;3.63;;;2.27;;
3571;SDS011;7958;53.024;12.970;2022-09-09T13:59:16;4.77;;;2.27;;
3571;SDS011;7958;53.024;12.970;2022-09-09T14:01:44;11.87;;;2.63;;
3571;SDS011;7958;53.024;12.970;2022-09-09T14:04:11;5.70;;;2.60;;
3571;SDS011;7958;53.024;12.970;2022-09-09T14:06:43;5.37;;;2.47;;
3571;SDS011;7958;53.024;12.970;2022-09-09T14:09:11;3.50;;;2.43;;
3571;SDS011;7958;53.024;12.970;2022-09-09T14:11:41;3.50;;;1.93;;
3571;SDS011;7958;53.024;12.970;2022-09-09T14:14:09;4.43;;;1.90;;
3571;SDS011;7958;53.024;12.970;2022-09-09T14:16:36;3.77;;;1.80;;
3571;SDS011;7958;53.024;12.970;2022-09-09T14:19:02;1.50;;;1.40;;
3571;SDS011;7958;53.024;12.970;2022-09-09T14:21:29;2.20;;;1.63;;
3571;SDS011;7958;53.024;12.970;2022-09-09T14:23:58;7.80;;;1.80;;
3571;SDS011;7958;53.024;12.970;2022-09-09T14:26:25;1.90;;;1.60;;
3571;SDS011;7958;53.024;12.970;2022-09-09T14:28:55;5.10;;;1.57;;
3571;SDS011;7958;53.024;12.970;2022-09-09T14:31:22;2.40;;;1.57;;
3571;SDS011;7958;53.024;12.970;2022-09-09T14:33:49;4.43;;;1.60;;
3571;SDS011;7958;53.024;12.970;2022-09-09T14:36:15;4.30;;;1.40;;
3571;SDS011;7958;53.024;12.970;2022-09-09T14:38:42;3.87;;;1.70;;
3571;SDS011;7958;53.024;12.970;2022-09-09T14:41:09;4.40;;;1.40;;
3571;SDS011;7958;53.024;12.970;2022-09-09T14:43:37;2.40;;;1.47;;
3571;SDS011;7958;53.024;12.970;2022-09-09T14:46:08;1.20;;;1.20;;
3571;SDS011;7958;53.024;12.970;2022-09-09T14:48:39;4.97;;;1.80;;
3571;SDS011;7958;53.024;12.970;2022-09-09T14:51:07;1.40;;;1.30;;
3571;SDS011;7958;53.024;12.970;2022-09-09T14:53:33;3.23;;;1.40;;
3571;SDS011;7958;53.024;12.970;2022-09-09T14:56:07;5.03;;;1.83;;
3571;SDS011;7958;53.024;12.970;2022-09-09T14:58:35;2.07;;;1.27;;
3571;SDS011;7958;53.024;12.970;2022-09-09T15:01:05;1.60;;;1.20;;
3571;SDS011;7958;53.024;12.970;2022-09-09T15:03:33;4.20;;;1.30;;
3571;SDS011;7958;53.024;12.970;2022-09-09T15:06:04;4.53;;;1.37;;
3571;SDS011;7958;53.024;12.970;2022-09-09T15:08:31;4.00;;;1.50;;
3571;SDS011;7958;53.024;12.970;2022-09-09T15:11:17;3.33;;;1.47;;
3571;SDS011;7958;53.024;12.970;2022-09-09T15:13:44;4.63;;;1.73;;
3571;SDS011;7958;53.024;12.970;2022-09-09T15:16:14;3.40;;;1.33;;
3571;SDS011;7958;53.024;12.970;2022-09-09T15:18:42;6.23;;;1.40;;